sensor_id;sensor_type;location;lat;lon;timestamp;P1;durP1;ratioP1;P2;durP2;ratioP2
68872;SDS011;55907;50.806;12.882;2022-07-12T00:01:23;2.4;;;1.1;;
68872;SDS011;55907;50.806;12.882;2022-07-12T00:04:25;1.2;;;1.1;;
68872;SDS011;55907;50.806;12.882;2022-07-12T00:10:28;1.5;;;1.1;;
68872;SDS011;55907;50.806;12.882;2022-07-12T00:13:29;2.0;;;1.2;;
68872;SDS011;55907;50.806;12.882;2022-07-12T00:16:30;1.4;;;1.2;;
68872;SDS011;55907;50.806;12.882;2022-07-12T00:19:32;2.2;;;1.1;;
68872;SDS011;55907;50.806;12.882;2022-07-12T00:22:33;1.8;;;1.2;;
68872;SDS011;55907;50.806;12.882;2022-07-12T00:25:35;1.9;;;1.1;;
68872;SDS011;55907;50.806;12.882;2022-07-12T00:28:36;1.7;;;1.3;;
68872;SDS011;55907;50.806;12.882;2022-07-12T00:31:37;1.3;;;1.2;;
68872;SDS011;55907;50.806;12.882;2022-07-12T00:34:39;1.6;;;1.2;;
68872;SDS011;55907;50.806;12.882;2022-07-12T00:40:42;1.3;;;1.2;;
68872;SDS011;55907;50.806;12.882;2022-07-12T00:43:43;2.0;;;1.1;;
68872;SDS011;55907;50.806;12.882;2022-07-12T00:44:30;unavailable;;;unavailable;;
68872;SDS011;55907;50.806;12.882;2022-07-12T00:44:36;2.0;;;1.1;;
68872;SDS011;55907;50.806;12.882;2022-07-12T00:46:45;2.1;;;1.3;;
68872;SDS011;55907;50.806;12.882;2022-07-12T00:49:46;1.6;;;1.3;;
68872;SDS011;55907;50.806;12.882;2022-07-12T00:52:48;3.0;;;1.4;;
68872;SDS011;55907;50.806;12.882;2022-07-12T00:55:52;1.8;;;1.3;;
68872;SDS011;55907;50.806;12.882;2022-07-12T00:58:50;3.0;;;1.3;;
68872;SDS011;55907;50.806;12.882;2022-07-12T01:01:52;3.3;;;1.5;;
68872;SDS011;55907;50.806;12.882;2022-07-12T01:04:53;2.1;;;1.6;;
68872;SDS011;55907;50.806;12.882;2022-07-12T01:07:55;3.1;;;1.9;;
68872;SDS011;55907;50.806;12.882;2022-07-12T01:10:56;3.0;;;1.8;;
68872;SDS011;55907;50.806;12.882;2022-07-12T01:13:57;3.3;;;1.9;;
68872;SDS011;55907;50.806;12.882;2022-07-12T01:16:59;3.5;;;1.9;;
68872;SDS011;55907;50.806;12.882;2022-07-12T01:20:00;3.8;;;2.0;;
68872;SDS011;55907;50.806;12.882;2022-07-12T01:23:02;3.0;;;2.0;;
68872;SDS011;55907;50.806;12.882;2022-07-12T01:26:03;3.4;;;1.9;;
68872;SDS011;55907;50.806;12.882;2022-07-12T01:29:04;2.4;;;1.6;;
68872;SDS011;55907;50.806;12.882;2022-07-12T01:32:06;3.2;;;1.8;;
68872;SDS011;55907;50.806;12.882;2022-07-12T01:35:07;2.5;;;1.8;;
68872;SDS011;55907;50.806;12.882;2022-07-12T01:38:08;3.4;;;1.8;;
68872;SDS011;55907;50.806;12.882;2022-07-12T01:41:10;3.5;;;1.9;;
68872;SDS011;55907;50.806;12.882;2022-07-12T01:44:11;2.7;;;1.9;;
68872;SDS011;55907;50.806;12.882;2022-07-12T01:47:13;3.4;;;1.9;;
68872;SDS011;55907;50.806;12.882;2022-07-12T01:50:14;2.7;;;1.8;;
68872;SDS011;55907;50.806;12.882;2022-07-12T01:53:15;3.9;;;1.7;;
68872;SDS011;55907;50.806;12.882;2022-07-12T01:56:17;2.6;;;1.6;;
68872;SDS011;55907;50.806;12.882;2022-07-12T01:59:18;2.8;;;1.8;;
68872;SDS011;55907;50.806;12.882;2022-07-12T02:02:20;3.2;;;1.8;;
68872;SDS011;55907;50.806;12.882;2022-07-12T02:05:21;2.0;;;1.7;;
68872;SDS011;55907;50.806;12.882;2022-07-12T02:08:22;2.3;;;1.7;;
68872;SDS011;55907;50.806;12.882;2022-07-12T02:11:24;1.9;;;1.7;;
68872;SDS011;55907;50.806;12.882;2022-07-12T02:14:25;2.5;;;1.9;;
68872;SDS011;55907;50.806;12.882;2022-07-12T02:17:27;1.7;;;1.6;;
68872;SDS011;55907;50.806;12.882;2022-07-12T02:20:28;3.0;;;1.7;;
68872;SDS011;55907;50.806;12.882;2022-07-12T02:23:29;1.7;;;1.6;;
68872;SDS011;55907;50.806;12.882;2022-07-12T02:26:32;2.5;;;1.8;;
68872;SDS011;55907;50.806;12.882;2022-07-12T02:29:32;1.7;;;1.6;;
68872;SDS011;55907;50.806;12.882;2022-07-12T02:32:34;2.3;;;1.7;;
68872;SDS011;55907;50.806;12.882;2022-07-12T02:35:35;2.5;;;1.8;;
68872;SDS011;55907;50.806;12.882;2022-07-12T02:38:36;2.0;;;1.8;;
68872;SDS011;55907;50.806;12.882;2022-07-12T02:41:40;2.4;;;1.7;;
68872;SDS011;55907;50.806;12.882;2022-07-12T02:44:39;1.9;;;1.6;;
68872;SDS011;55907;50.806;12.882;2022-07-12T02:47:41;2.0;;;1.5;;
68872;SDS011;55907;50.806;12.882;2022-07-12T02:50:42;2.4;;;1.8;;
68872;SDS011;55907;50.806;12.882;2022-07-12T02:53:43;2.3;;;2.1;;
68872;SDS011;55907;50.806;12.882;2022-07-12T02:56:45;2.2;;;1.9;;
68872;SDS011;55907;50.806;12.882;2022-07-12T02:59:46;2.6;;;1.9;;
68872;SDS011;55907;50.806;12.882;2022-07-12T03:02:48;2.5;;;2.0;;
68872;SDS011;55907;50.806;12.882;2022-07-12T03:05:49;2.3;;;2.1;;
68872;SDS011;55907;50.806;12.882;2022-07-12T03:08:50;2.8;;;1.9;;
68872;SDS011;55907;50.806;12.882;2022-07-12T03:11:52;2.2;;;2.0;;
68872;SDS011;55907;50.806;12.882;2022-07-12T03:14:53;2.5;;;1.8;;
68872;SDS011;55907;50.806;12.882;2022-07-12T03:17:55;3.1;;;2.1;;
68872;SDS011;55907;50.806;12.882;2022-07-12T03:20:56;2.3;;;2.1;;
68872;SDS011;55907;50.806;12.882;2022-07-12T03:23:57;2.1;;;1.9;;
68872;SDS011;55907;50.806;12.882;2022-07-12T03:26:59;2.9;;;2.1;;
68872;SDS011;55907;50.806;12.882;2022-07-12T03:30:00;2.5;;;2.2;;
68872;SDS011;55907;50.806;12.882;2022-07-12T03:33:02;2.7;;;2.3;;
68872;SDS011;55907;50.806;12.882;2022-07-12T03:36:03;3.3;;;2.1;;
68872;SDS011;55907;50.806;12.882;2022-07-12T03:39:04;2.6;;;2.4;;
68872;SDS011;55907;50.806;12.882;2022-07-12T03:42:06;3.0;;;2.3;;
68872;SDS011;55907;50.806;12.882;2022-07-12T03:48:09;3.5;;;2.6;;
68872;SDS011;55907;50.806;12.882;2022-07-12T03:51:10;3.2;;;2.5;;
68872;SDS011;55907;50.806;12.882;2022-07-12T03:54:11;3.1;;;2.6;;
68872;SDS011;55907;50.806;12.882;2022-07-12T03:57:13;2.8;;;2.4;;
68872;SDS011;55907;50.806;12.882;2022-07-12T04:00:14;3.1;;;2.6;;
68872;SDS011;55907;50.806;12.882;2022-07-12T04:03:16;2.9;;;2.7;;
68872;SDS011;55907;50.806;12.882;2022-07-12T04:06:17;3.6;;;2.5;;
68872;SDS011;55907;50.806;12.882;2022-07-12T04:09:19;2.9;;;2.4;;
68872;SDS011;55907;50.806;12.882;2022-07-12T04:12:20;3.9;;;2.7;;
68872;SDS011;55907;50.806;12.882;2022-07-12T04:15:21;3.7;;;2.7;;
68872;SDS011;55907;50.806;12.882;2022-07-12T04:18:23;4.2;;;3.0;;
68872;SDS011;55907;50.806;12.882;2022-07-12T04:21:24;3.0;;;2.7;;
68872;SDS011;55907;50.806;12.882;2022-07-12T04:24:26;4.2;;;2.9;;
68872;SDS011;55907;50.806;12.882;2022-07-12T04:27:27;3.3;;;2.8;;
68872;SDS011;55907;50.806;12.882;2022-07-12T04:30:29;12.4;;;8.3;;
68872;SDS011;55907;50.806;12.882;2022-07-12T04:33:30;5.2;;;4.3;;
68872;SDS011;55907;50.806;12.882;2022-07-12T04:36:31;7.8;;;6.4;;
68872;SDS011;55907;50.806;12.882;2022-07-12T04:39:33;6.4;;;5.2;;
68872;SDS011;55907;50.806;12.882;2022-07-12T04:42:34;3.9;;;3.5;;
68872;SDS011;55907;50.806;12.882;2022-07-12T04:48:37;11.6;;;8.6;;
68872;SDS011;55907;50.806;12.882;2022-07-12T04:51:38;6.3;;;4.9;;
68872;SDS011;55907;50.806;12.882;2022-07-12T04:54:40;6.0;;;5.1;;
68872;SDS011;55907;50.806;12.882;2022-07-12T04:57:41;5.3;;;4.3;;
68872;SDS011;55907;50.806;12.882;2022-07-12T05:00:43;7.0;;;4.0;;
68872;SDS011;55907;50.806;12.882;2022-07-12T05:03:44;4.7;;;4.0;;
68872;SDS011;55907;50.806;12.882;2022-07-12T05:06:45;5.2;;;4.2;;
68872;SDS011;55907;50.806;12.882;2022-07-12T05:09:47;4.4;;;4.0;;
68872;SDS011;55907;50.806;12.882;2022-07-12T05:12:48;5.3;;;4.6;;
68872;SDS011;55907;50.806;12.882;2022-07-12T05:15:49;6.3;;;5.5;;
68872;SDS011;55907;50.806;12.882;2022-07-12T05:18:51;9.8;;;5.9;;
68872;SDS011;55907;50.806;12.882;2022-07-12T05:21:52;8.0;;;6.8;;
68872;SDS011;55907;50.806;12.882;2022-07-12T05:24:53;8.4;;;7.5;;
68872;SDS011;55907;50.806;12.882;2022-07-12T05:27:55;5.7;;;5.2;;
68872;SDS011;55907;50.806;12.882;2022-07-12T05:30:56;7.4;;;5.9;;
68872;SDS011;55907;50.806;12.882;2022-07-12T05:33:58;6.4;;;5.1;;
68872;SDS011;55907;50.806;12.882;2022-07-12T05:36:59;7.4;;;5.4;;
68872;SDS011;55907;50.806;12.882;2022-07-12T05:40:00;5.0;;;4.5;;
68872;SDS011;55907;50.806;12.882;2022-07-12T05:43:02;5.4;;;4.7;;
68872;SDS011;55907;50.806;12.882;2022-07-12T05:46:04;5.6;;;5.0;;
68872;SDS011;55907;50.806;12.882;2022-07-12T05:49:05;5.8;;;5.2;;
68872;SDS011;55907;50.806;12.882;2022-07-12T05:52:06;5.7;;;5.2;;
68872;SDS011;55907;50.806;12.882;2022-07-12T05:58:09;5.2;;;4.7;;
68872;SDS011;55907;50.806;12.882;2022-07-12T06:01:10;4.7;;;4.2;;
68872;SDS011;55907;50.806;12.882;2022-07-12T06:04:11;5.3;;;4.8;;
68872;SDS011;55907;50.806;12.882;2022-07-12T06:07:13;7.7;;;6.1;;
68872;SDS011;55907;50.806;12.882;2022-07-12T06:10:14;6.0;;;4.9;;
68872;SDS011;55907;50.806;12.882;2022-07-12T06:13:15;5.0;;;4.5;;
68872;SDS011;55907;50.806;12.882;2022-07-12T06:16:17;5.9;;;4.4;;
68872;SDS011;55907;50.806;12.882;2022-07-12T06:19:18;5.0;;;4.5;;
68872;SDS011;55907;50.806;12.882;2022-07-12T06:22:19;5.1;;;4.7;;
68872;SDS011;55907;50.806;12.882;2022-07-12T06:25:21;5.7;;;4.7;;
68872;SDS011;55907;50.806;12.882;2022-07-12T06:28:22;5.4;;;4.7;;
68872;SDS011;55907;50.806;12.882;2022-07-12T06:31:24;6.1;;;5.2;;
68872;SDS011;55907;50.806;12.882;2022-07-12T06:34:25;5.5;;;5.0;;
68872;SDS011;55907;50.806;12.882;2022-07-12T06:37:26;5.2;;;4.7;;
68872;SDS011;55907;50.806;12.882;2022-07-12T06:40:28;6.8;;;6.1;;
68872;SDS011;55907;50.806;12.882;2022-07-12T06:43:29;7.0;;;6.1;;
68872;SDS011;55907;50.806;12.882;2022-07-12T06:46:30;6.9;;;6.2;;
68872;SDS011;55907;50.806;12.882;2022-07-12T06:49:32;5.7;;;5.2;;
68872;SDS011;55907;50.806;12.882;2022-07-12T06:52:33;5.9;;;5.3;;
68872;SDS011;55907;50.806;12.882;2022-07-12T06:55:34;5.8;;;5.3;;
68872;SDS011;55907;50.806;12.882;2022-07-12T06:58:36;5.6;;;5.0;;
68872;SDS011;55907;50.806;12.882;2022-07-12T07:01:37;5.4;;;4.9;;
68872;SDS011;55907;50.806;12.882;2022-07-12T07:04:38;5.2;;;4.7;;
68872;SDS011;55907;50.806;12.882;2022-07-12T07:07:40;5.8;;;5.1;;
68872;SDS011;55907;50.806;12.882;2022-07-12T07:10:41;6.4;;;5.2;;
68872;SDS011;55907;50.806;12.882;2022-07-12T07:13:43;6.8;;;6.1;;
68872;SDS011;55907;50.806;12.882;2022-07-12T07:16:44;6.2;;;5.6;;
68872;SDS011;55907;50.806;12.882;2022-07-12T07:19:45;6.8;;;6.2;;
68872;SDS011;55907;50.806;12.882;2022-07-12T07:22:47;6.0;;;5.5;;
68872;SDS011;55907;50.806;12.882;2022-07-12T07:25:48;6.1;;;5.5;;
68872;SDS011;55907;50.806;12.882;2022-07-12T07:34:52;5.7;;;5.2;;
68872;SDS011;55907;50.806;12.882;2022-07-12T07:37:53;5.8;;;5.2;;
68872;SDS011;55907;50.806;12.882;2022-07-12T07:40:55;5.7;;;4.6;;
68872;SDS011;55907;50.806;12.882;2022-07-12T07:43:56;4.9;;;4.4;;
68872;SDS011;55907;50.806;12.882;2022-07-12T07:46:57;6.5;;;4.7;;
68872;SDS011;55907;50.806;12.882;2022-07-12T07:49:59;4.8;;;4.3;;
68872;SDS011;55907;50.806;12.882;2022-07-12T07:53:00;5.5;;;3.9;;
68872;SDS011;55907;50.806;12.882;2022-07-12T07:56:02;6.2;;;5.5;;
68872;SDS011;55907;50.806;12.882;2022-07-12T07:59:03;4.4;;;4.0;;
68872;SDS011;55907;50.806;12.882;2022-07-12T08:02:04;4.9;;;4.4;;
68872;SDS011;55907;50.806;12.882;2022-07-12T08:05:06;5.3;;;4.5;;
68872;SDS011;55907;50.806;12.882;2022-07-12T08:08:07;5.7;;;4.7;;
68872;SDS011;55907;50.806;12.882;2022-07-12T08:11:09;5.6;;;4.9;;
68872;SDS011;55907;50.806;12.882;2022-07-12T08:14:10;4.9;;;4.2;;
68872;SDS011;55907;50.806;12.882;2022-07-12T08:17:11;5.2;;;4.7;;
68872;SDS011;55907;50.806;12.882;2022-07-12T08:20:12;4.8;;;4.1;;
68872;SDS011;55907;50.806;12.882;2022-07-12T08:23:14;4.6;;;4.1;;
68872;SDS011;55907;50.806;12.882;2022-07-12T08:26:15;5.2;;;4.5;;
68872;SDS011;55907;50.806;12.882;2022-07-12T08:29:16;5.5;;;4.6;;
68872;SDS011;55907;50.806;12.882;2022-07-12T08:32:18;4.8;;;3.9;;
68872;SDS011;55907;50.806;12.882;2022-07-12T08:35:19;11.2;;;4.9;;
68872;SDS011;55907;50.806;12.882;2022-07-12T08:38:21;5.8;;;4.0;;
68872;SDS011;55907;50.806;12.882;2022-07-12T08:41:22;5.7;;;4.0;;
68872;SDS011;55907;50.806;12.882;2022-07-12T08:44:23;5.4;;;4.1;;
68872;SDS011;55907;50.806;12.882;2022-07-12T08:47:25;6.3;;;5.0;;
68872;SDS011;55907;50.806;12.882;2022-07-12T08:50:26;4.1;;;3.1;;
68872;SDS011;55907;50.806;12.882;2022-07-12T08:53:27;6.8;;;2.7;;
68872;SDS011;55907;50.806;12.882;2022-07-12T08:56:29;3.9;;;3.0;;
68872;SDS011;55907;50.806;12.882;2022-07-12T08:59:30;3.6;;;3.3;;
68872;SDS011;55907;50.806;12.882;2022-07-12T09:02:32;5.4;;;3.3;;
68872;SDS011;55907;50.806;12.882;2022-07-12T09:05:33;4.0;;;3.3;;
68872;SDS011;55907;50.806;12.882;2022-07-12T09:08:34;3.9;;;3.5;;
68872;SDS011;55907;50.806;12.882;2022-07-12T09:11:36;4.5;;;2.9;;
68872;SDS011;55907;50.806;12.882;2022-07-12T09:14:36;4.7;;;3.4;;
68872;SDS011;55907;50.806;12.882;2022-07-12T09:17:38;4.6;;;2.9;;
68872;SDS011;55907;50.806;12.882;2022-07-12T09:20:39;4.4;;;3.6;;
68872;SDS011;55907;50.806;12.882;2022-07-12T09:23:50;4.6;;;3.1;;
68872;SDS011;55907;50.806;12.882;2022-07-12T09:26:41;2.4;;;2.2;;
68872;SDS011;55907;50.806;12.882;2022-07-12T09:29:46;2.8;;;2.0;;
68872;SDS011;55907;50.806;12.882;2022-07-12T09:32:52;3.1;;;1.7;;
68872;SDS011;55907;50.806;12.882;2022-07-12T09:38:49;3.7;;;1.8;;
68872;SDS011;55907;50.806;12.882;2022-07-12T09:41:48;4.1;;;1.9;;
68872;SDS011;55907;50.806;12.882;2022-07-12T09:44:49;3.8;;;2.5;;
68872;SDS011;55907;50.806;12.882;2022-07-12T09:47:51;4.4;;;3.3;;
68872;SDS011;55907;50.806;12.882;2022-07-12T09:50:52;2.1;;;1.8;;
68872;SDS011;55907;50.806;12.882;2022-07-12T09:53:53;3.1;;;1.8;;
68872;SDS011;55907;50.806;12.882;2022-07-12T09:56:57;2.4;;;1.7;;
68872;SDS011;55907;50.806;12.882;2022-07-12T09:59:57;2.0;;;1.5;;
68872;SDS011;55907;50.806;12.882;2022-07-12T10:02:57;4.5;;;1.9;;
68872;SDS011;55907;50.806;12.882;2022-07-12T10:06:00;3.0;;;1.6;;
68872;SDS011;55907;50.806;12.882;2022-07-12T10:09:00;2.0;;;1.3;;
68872;SDS011;55907;50.806;12.882;2022-07-12T10:12:02;3.5;;;1.4;;
68872;SDS011;55907;50.806;12.882;2022-07-12T10:15:03;2.7;;;1.3;;
68872;SDS011;55907;50.806;12.882;2022-07-12T10:18:04;2.6;;;1.3;;
68872;SDS011;55907;50.806;12.882;2022-07-12T10:30:14;3.3;;;1.9;;
68872;SDS011;55907;50.806;12.882;2022-07-12T10:33:14;3.8;;;1.7;;
68872;SDS011;55907;50.806;12.882;2022-07-12T10:36:12;3.5;;;1.3;;
68872;SDS011;55907;50.806;12.882;2022-07-12T10:39:13;4.0;;;1.2;;
68872;SDS011;55907;50.806;12.882;2022-07-12T10:42:15;4.6;;;1.7;;
68872;SDS011;55907;50.806;12.882;2022-07-12T10:45:16;3.2;;;1.0;;
68872;SDS011;55907;50.806;12.882;2022-07-12T10:48:19;5.6;;;1.2;;
68872;SDS011;55907;50.806;12.882;2022-07-12T10:51:19;4.0;;;1.3;;
68872;SDS011;55907;50.806;12.882;2022-07-12T10:54:20;2.0;;;1.4;;
68872;SDS011;55907;50.806;12.882;2022-07-12T11:00:23;2.7;;;0.9;;
68872;SDS011;55907;50.806;12.882;2022-07-12T11:03:26;2.1;;;1.1;;
68872;SDS011;55907;50.806;12.882;2022-07-12T11:06:26;3.0;;;1.3;;
68872;SDS011;55907;50.806;12.882;2022-07-12T11:12:28;3.8;;;1.3;;
68872;SDS011;55907;50.806;12.882;2022-07-12T11:15:29;3.6;;;1.1;;
68872;SDS011;55907;50.806;12.882;2022-07-12T11:18:31;2.4;;;1.2;;
68872;SDS011;55907;50.806;12.882;2022-07-12T11:21:32;3.3;;;1.0;;
68872;SDS011;55907;50.806;12.882;2022-07-12T11:24:34;2.8;;;0.9;;
68872;SDS011;55907;50.806;12.882;2022-07-12T11:27:35;2.9;;;0.9;;
68872;SDS011;55907;50.806;12.882;2022-07-12T11:30:36;3.6;;;1.0;;
68872;SDS011;55907;50.806;12.882;2022-07-12T11:33:38;3.1;;;0.9;;
68872;SDS011;55907;50.806;12.882;2022-07-12T11:36:39;1.2;;;0.9;;
68872;SDS011;55907;50.806;12.882;2022-07-12T11:39:40;2.0;;;0.8;;
68872;SDS011;55907;50.806;12.882;2022-07-12T11:45:43;2.5;;;0.9;;
68872;SDS011;55907;50.806;12.882;2022-07-12T11:48:44;2.8;;;1.0;;
68872;SDS011;55907;50.806;12.882;2022-07-12T11:51:46;1.9;;;0.9;;
68872;SDS011;55907;50.806;12.882;2022-07-12T11:54:48;2.5;;;0.9;;
68872;SDS011;55907;50.806;12.882;2022-07-12T11:57:48;3.0;;;1.1;;
68872;SDS011;55907;50.806;12.882;2022-07-12T12:00:50;2.3;;;0.8;;
68872;SDS011;55907;50.806;12.882;2022-07-12T12:03:51;1.8;;;0.9;;
68872;SDS011;55907;50.806;12.882;2022-07-12T12:06:52;4.3;;;1.2;;
68872;SDS011;55907;50.806;12.882;2022-07-12T12:09:57;2.4;;;1.0;;
68872;SDS011;55907;50.806;12.882;2022-07-12T12:12:55;2.2;;;0.9;;
68872;SDS011;55907;50.806;12.882;2022-07-12T12:15:57;4.3;;;1.0;;
68872;SDS011;55907;50.806;12.882;2022-07-12T12:19:00;6.0;;;3.8;;
68872;SDS011;55907;50.806;12.882;2022-07-12T12:21:59;2.1;;;1.3;;
68872;SDS011;55907;50.806;12.882;2022-07-12T12:25:00;3.6;;;1.0;;
68872;SDS011;55907;50.806;12.882;2022-07-12T12:28:02;2.5;;;1.0;;
68872;SDS011;55907;50.806;12.882;2022-07-12T12:31:03;3.5;;;1.0;;
68872;SDS011;55907;50.806;12.882;2022-07-12T12:34:09;4.2;;;1.1;;
68872;SDS011;55907;50.806;12.882;2022-07-12T12:37:06;3.5;;;0.9;;
68872;SDS011;55907;50.806;12.882;2022-07-12T12:40:07;2.4;;;0.8;;
68872;SDS011;55907;50.806;12.882;2022-07-12T12:43:09;2.7;;;1.1;;
68872;SDS011;55907;50.806;12.882;2022-07-12T12:46:09;1.8;;;0.9;;
68872;SDS011;55907;50.806;12.882;2022-07-12T12:49:11;3.7;;;1.9;;
68872;SDS011;55907;50.806;12.882;2022-07-12T12:52:13;2.1;;;1.4;;
68872;SDS011;55907;50.806;12.882;2022-07-12T12:55:13;2.2;;;0.9;;
68872;SDS011;55907;50.806;12.882;2022-07-12T12:58:15;2.7;;;1.4;;
68872;SDS011;55907;50.806;12.882;2022-07-12T13:01:16;4.1;;;2.0;;
68872;SDS011;55907;50.806;12.882;2022-07-12T13:04:17;2.8;;;1.5;;
68872;SDS011;55907;50.806;12.882;2022-07-12T13:07:19;3.4;;;0.9;;
68872;SDS011;55907;50.806;12.882;2022-07-12T13:10:20;1.5;;;0.9;;
68872;SDS011;55907;50.806;12.882;2022-07-12T13:13:21;2.5;;;0.9;;
68872;SDS011;55907;50.806;12.882;2022-07-12T13:16:23;2.8;;;0.9;;
68872;SDS011;55907;50.806;12.882;2022-07-12T13:19:24;3.1;;;1.0;;
68872;SDS011;55907;50.806;12.882;2022-07-12T13:22:25;1.9;;;0.9;;
68872;SDS011;55907;50.806;12.882;2022-07-12T13:25:27;1.5;;;0.9;;
68872;SDS011;55907;50.806;12.882;2022-07-12T13:28:28;2.4;;;0.9;;
68872;SDS011;55907;50.806;12.882;2022-07-12T13:31:29;2.0;;;1.0;;
68872;SDS011;55907;50.806;12.882;2022-07-12T13:34:31;3.2;;;1.0;;
68872;SDS011;55907;50.806;12.882;2022-07-12T13:37:32;1.4;;;0.9;;
68872;SDS011;55907;50.806;12.882;2022-07-12T13:40:33;1.6;;;0.9;;
68872;SDS011;55907;50.806;12.882;2022-07-12T13:43:35;2.0;;;1.1;;
68872;SDS011;55907;50.806;12.882;2022-07-12T13:46:36;1.8;;;1.1;;
68872;SDS011;55907;50.806;12.882;2022-07-12T13:49:37;4.0;;;1.0;;
68872;SDS011;55907;50.806;12.882;2022-07-12T13:52:39;2.4;;;1.1;;
68872;SDS011;55907;50.806;12.882;2022-07-12T13:55:41;2.6;;;0.9;;
68872;SDS011;55907;50.806;12.882;2022-07-12T13:58:41;2.3;;;1.2;;
68872;SDS011;55907;50.806;12.882;2022-07-12T14:01:43;5.2;;;2.2;;
68872;SDS011;55907;50.806;12.882;2022-07-12T14:04:44;3.3;;;1.2;;
68872;SDS011;55907;50.806;12.882;2022-07-12T14:07:46;2.8;;;1.0;;
68872;SDS011;55907;50.806;12.882;2022-07-12T14:10:47;3.1;;;1.0;;
68872;SDS011;55907;50.806;12.882;2022-07-12T14:13:48;5.9;;;3.7;;
68872;SDS011;55907;50.806;12.882;2022-07-12T14:16:49;4.4;;;2.6;;
68872;SDS011;55907;50.806;12.882;2022-07-12T14:19:51;3.4;;;1.1;;
68872;SDS011;55907;50.806;12.882;2022-07-12T14:22:52;7.1;;;4.6;;
68872;SDS011;55907;50.806;12.882;2022-07-12T14:25:53;6.6;;;2.6;;
68872;SDS011;55907;50.806;12.882;2022-07-12T14:28:55;2.8;;;1.6;;
68872;SDS011;55907;50.806;12.882;2022-07-12T14:31:56;3.9;;;1.3;;
68872;SDS011;55907;50.806;12.882;2022-07-12T14:34:57;4.7;;;1.8;;
68872;SDS011;55907;50.806;12.882;2022-07-12T14:37:59;2.6;;;1.8;;
68872;SDS011;55907;50.806;12.882;2022-07-12T14:41:00;3.0;;;1.7;;
68872;SDS011;55907;50.806;12.882;2022-07-12T14:44:01;3.5;;;1.0;;
68872;SDS011;55907;50.806;12.882;2022-07-12T14:47:03;2.2;;;1.1;;
68872;SDS011;55907;50.806;12.882;2022-07-12T14:50:04;1.8;;;0.8;;
68872;SDS011;55907;50.806;12.882;2022-07-12T14:53:05;3.3;;;0.9;;
68872;SDS011;55907;50.806;12.882;2022-07-12T14:56:07;2.1;;;0.8;;
68872;SDS011;55907;50.806;12.882;2022-07-12T14:59:08;2.3;;;1.4;;
68872;SDS011;55907;50.806;12.882;2022-07-12T15:02:09;5.1;;;0.9;;
68872;SDS011;55907;50.806;12.882;2022-07-12T15:05:11;1.8;;;1.1;;
68872;SDS011;55907;50.806;12.882;2022-07-12T15:08:12;5.7;;;1.4;;
68872;SDS011;55907;50.806;12.882;2022-07-12T15:11:13;3.8;;;1.2;;
68872;SDS011;55907;50.806;12.882;2022-07-12T15:14:15;1.2;;;1.0;;
68872;SDS011;55907;50.806;12.882;2022-07-12T15:17:16;1.5;;;1.1;;
68872;SDS011;55907;50.806;12.882;2022-07-12T15:20:17;3.8;;;1.1;;
68872;SDS011;55907;50.806;12.882;2022-07-12T15:23:19;1.7;;;0.8;;
68872;SDS011;55907;50.806;12.882;2022-07-12T15:26:20;2.0;;;1.3;;
68872;SDS011;55907;50.806;12.882;2022-07-12T15:29:21;2.1;;;0.9;;
68872;SDS011;55907;50.806;12.882;2022-07-12T15:32:23;4.1;;;2.1;;
68872;SDS011;55907;50.806;12.882;2022-07-12T15:35:24;4.8;;;2.2;;
68872;SDS011;55907;50.806;12.882;2022-07-12T15:38:25;4.2;;;2.1;;
68872;SDS011;55907;50.806;12.882;2022-07-12T15:41:27;2.8;;;1.9;;
68872;SDS011;55907;50.806;12.882;2022-07-12T15:44:28;5.5;;;1.8;;
68872;SDS011;55907;50.806;12.882;2022-07-12T15:47:29;15.4;;;4.8;;
68872;SDS011;55907;50.806;12.882;2022-07-12T15:50:31;6.4;;;2.6;;
68872;SDS011;55907;50.806;12.882;2022-07-12T15:53:32;3.0;;;1.1;;
68872;SDS011;55907;50.806;12.882;2022-07-12T15:56:33;3.1;;;1.9;;
68872;SDS011;55907;50.806;12.882;2022-07-12T15:59:35;3.6;;;1.5;;
68872;SDS011;55907;50.806;12.882;2022-07-12T16:02:36;4.5;;;1.9;;
68872;SDS011;55907;50.806;12.882;2022-07-12T16:05:38;3.8;;;2.0;;
68872;SDS011;55907;50.806;12.882;2022-07-12T16:08:39;5.1;;;2.7;;
68872;SDS011;55907;50.806;12.882;2022-07-12T16:11:40;3.1;;;1.2;;
68872;SDS011;55907;50.806;12.882;2022-07-12T16:14:42;2.7;;;1.0;;
68872;SDS011;55907;50.806;12.882;2022-07-12T16:17:43;1.9;;;1.0;;
68872;SDS011;55907;50.806;12.882;2022-07-12T16:20:44;2.6;;;1.3;;
68872;SDS011;55907;50.806;12.882;2022-07-12T16:23:46;1.7;;;1.6;;
68872;SDS011;55907;50.806;12.882;2022-07-12T16:26:47;2.3;;;1.4;;
68872;SDS011;55907;50.806;12.882;2022-07-12T16:29:48;2.7;;;1.1;;
68872;SDS011;55907;50.806;12.882;2022-07-12T16:32:50;2.3;;;1.2;;
68872;SDS011;55907;50.806;12.882;2022-07-12T16:35:51;3.4;;;2.1;;
68872;SDS011;55907;50.806;12.882;2022-07-12T16:38:52;2.0;;;1.2;;
68872;SDS011;55907;50.806;12.882;2022-07-12T16:41:54;2.2;;;1.3;;
68872;SDS011;55907;50.806;12.882;2022-07-12T16:44:55;1.5;;;1.3;;
68872;SDS011;55907;50.806;12.882;2022-07-12T16:47:56;2.1;;;0.8;;
68872;SDS011;55907;50.806;12.882;2022-07-12T16:50:58;4.4;;;1.2;;
68872;SDS011;55907;50.806;12.882;2022-07-12T16:53:59;2.2;;;1.0;;
68872;SDS011;55907;50.806;12.882;2022-07-12T16:57:00;2.1;;;1.0;;
68872;SDS011;55907;50.806;12.882;2022-07-12T17:00:02;2.0;;;0.9;;
68872;SDS011;55907;50.806;12.882;2022-07-12T17:03:03;1.5;;;0.7;;
68872;SDS011;55907;50.806;12.882;2022-07-12T17:06:05;3.9;;;0.9;;
68872;SDS011;55907;50.806;12.882;2022-07-12T17:09:06;1.3;;;0.8;;
68872;SDS011;55907;50.806;12.882;2022-07-12T17:12:07;2.6;;;1.3;;
68872;SDS011;55907;50.806;12.882;2022-07-12T17:15:09;3.0;;;0.8;;
68872;SDS011;55907;50.806;12.882;2022-07-12T17:18:10;2.5;;;1.4;;
68872;SDS011;55907;50.806;12.882;2022-07-12T17:21:11;0.9;;;0.8;;
68872;SDS011;55907;50.806;12.882;2022-07-12T17:24:12;2.4;;;0.8;;
68872;SDS011;55907;50.806;12.882;2022-07-12T17:27:14;3.5;;;1.2;;
68872;SDS011;55907;50.806;12.882;2022-07-12T17:30:15;1.6;;;0.7;;
68872;SDS011;55907;50.806;12.882;2022-07-12T17:33:16;2.7;;;2.2;;
68872;SDS011;55907;50.806;12.882;2022-07-12T17:36:18;5.7;;;3.3;;
68872;SDS011;55907;50.806;12.882;2022-07-12T17:39:19;4.2;;;2.0;;
68872;SDS011;55907;50.806;12.882;2022-07-12T17:42:21;2.3;;;1.5;;
68872;SDS011;55907;50.806;12.882;2022-07-12T17:48:23;3.4;;;2.0;;
68872;SDS011;55907;50.806;12.882;2022-07-12T17:51:25;5.2;;;2.7;;
68872;SDS011;55907;50.806;12.882;2022-07-12T17:54:26;1.7;;;1.3;;
68872;SDS011;55907;50.806;12.882;2022-07-12T17:57:27;3.1;;;1.5;;
68872;SDS011;55907;50.806;12.882;2022-07-12T18:00:29;2.4;;;0.9;;
68872;SDS011;55907;50.806;12.882;2022-07-12T18:03:30;1.2;;;0.9;;
68872;SDS011;55907;50.806;12.882;2022-07-12T18:06:31;1.7;;;1.0;;
68872;SDS011;55907;50.806;12.882;2022-07-12T18:09:33;1.6;;;1.0;;
68872;SDS011;55907;50.806;12.882;2022-07-12T18:12:34;3.3;;;1.1;;
68872;SDS011;55907;50.806;12.882;2022-07-12T18:15:35;2.4;;;1.3;;
68872;SDS011;55907;50.806;12.882;2022-07-12T18:18:37;1.3;;;0.9;;
68872;SDS011;55907;50.806;12.882;2022-07-12T18:21:38;3.8;;;2.0;;
68872;SDS011;55907;50.806;12.882;2022-07-12T18:24:39;3.5;;;1.7;;
68872;SDS011;55907;50.806;12.882;2022-07-12T18:27:41;2.3;;;1.4;;
68872;SDS011;55907;50.806;12.882;2022-07-12T18:30:42;3.8;;;3.0;;
68872;SDS011;55907;50.806;12.882;2022-07-12T18:33:43;5.7;;;3.7;;
68872;SDS011;55907;50.806;12.882;2022-07-12T18:36:45;4.9;;;3.2;;
68872;SDS011;55907;50.806;12.882;2022-07-12T18:39:46;6.2;;;4.1;;
68872;SDS011;55907;50.806;12.882;2022-07-12T18:42:47;9.1;;;6.6;;
68872;SDS011;55907;50.806;12.882;2022-07-12T18:45:49;5.8;;;4.6;;
68872;SDS011;55907;50.806;12.882;2022-07-12T18:48:50;5.6;;;4.1;;
68872;SDS011;55907;50.806;12.882;2022-07-12T18:51:51;5.5;;;3.4;;
68872;SDS011;55907;50.806;12.882;2022-07-12T18:54:53;5.4;;;2.8;;
68872;SDS011;55907;50.806;12.882;2022-07-12T18:57:54;4.6;;;2.7;;
68872;SDS011;55907;50.806;12.882;2022-07-12T19:00:55;3.9;;;2.9;;
68872;SDS011;55907;50.806;12.882;2022-07-12T19:03:57;5.1;;;3.6;;
68872;SDS011;55907;50.806;12.882;2022-07-12T19:06:58;6.0;;;3.5;;